EW2549 Weather Reports


Display with metric or nautical units.
time (UTC)temp
F
wind
direction
speed
MPH
gust
MPH
rain 1hr
in
rain 24hr
in
rain mn
in
humidity
%
barometer
mb
20230206200035 43 234 3.0 16.0 0.00 0.00 0.00 30 1010.9
20230206194537 42 284 7.0 19.0 0.00 0.00 0.00 30 1010.8
20230206193023 43 277 8.0 17.0 0.00 0.00 0.00 30 1010.7
20230206191517 43 258 4.0 12.0 0.00 0.00 0.00 28 1010.7
20230206190015 43 235 3.0 13.0 0.00 0.00 0.00 31 1010.8
20230206184513 42 37 0.0 1.0 0.00 0.00 0.00 28 1010.9
20230206183011 42 332 0.0 7.0 0.00 0.00 0.00 29 1010.9
20230206181511 42 327 0.0 12.0 0.00 0.00 0.00 30 1010.9
20230206180008 41 272 0.0 14.0 0.00 0.00 0.00 32 1010.9
20230206174505 40 283 2.0 14.0 0.00 0.00 0.00 33 1010.8
20230206173003 40 329 2.0 16.0 0.00 0.00 0.00 30 1010.4
20230206171624 40 274 1.0 10.0 0.00 0.00 0.00 31 1010.1
20230206170111 39 249 5.0 21.0 0.00 0.00 0.00 31 1009.6
20230206164554 38 256 12.0 24.0 0.00 0.00 0.00 31 1009.6
20230206161553 37 256 12.0 19.0 0.00 0.00 0.00 33 1009.2
20230206160048 37 277 7.0 13.0 0.00 0.00 0.00 34 1009.2
20230206154545 37 261 4.0 16.0 0.00 0.00 0.00 34 1009.2
20230206153054 37 278 5.0 18.0 0.00 0.00 0.00 35 1008.6
20230206151557 37 258 7.0 16.0 0.00 0.00 0.00 37 1008.4
20230206150046 36 239 5.0 23.0 0.00 0.00 0.00 38 1008.5
20230206144538 36 309 10.0 31.0 0.00 0.00 0.00 40 1007.9
20230206143039 35 277 12.0 20.0 0.00 0.00 0.00 43 1007.6
20230206141543 34 355 0.0 13.0 0.00 0.00 0.00 47 1007.6
20230206140029 32 224 0.0 10.0 0.00 0.00 0.00 54 1007.6
20230206134528 32 65 0.0 0.0 0.00 0.00 0.00 63 1007.3
20230206133028 32 340 0.0 0.0 0.00 0.00 0.00 63 1007.2
20230206131534 33 82 0.0 0.0 0.00 0.00 0.00 62 1007.0
20230206130033 33 91 0.0 0.0 0.00 0.00 0.00 61 1007.0
20230206124533 35 128 0.0 0.0 0.00 0.00 0.00 58 1006.7
20230206123023 36 122 0.0 0.0 0.00 0.00 0.00 55 1006.7
20230206121522 37 111 0.0 0.0 0.00 0.00 0.00 49 1006.3
20230206120021 38 213 0.0 7.0 0.00 0.00 0.00 44 1006.2
20230206114520 38 84 1.0 9.0 0.00 0.00 0.00 48 1006.0
20230206113019 38 275 8.0 16.0 0.00 0.00 0.00 47 1005.6
20230206111516 37 272 5.0 14.0 0.00 0.00 0.00 56 1005.2
20230206110013 36 234 7.0 17.0 0.00 0.00 0.00 67 1005.1
20230206104508 31 266 1.0 6.0 0.00 0.00 0.00 70 1005.0
20230206103005 29 248 0.0 2.0 0.00 0.00 0.00 68 1005.3
20230206101502 28 247 0.0 0.0 0.00 0.00 0.00 68 1004.9
20230206100103 27 247 0.0 0.0 0.00 0.00 0.00 67 1004.8
20230206094622 27 266 0.0 0.0 0.00 0.00 0.00 65 1004.9
20230206093058 27 266 0.0 0.0 0.00 0.00 0.00 67 1005.0
20230206091657 27 266 0.0 0.0 0.00 0.00 0.00 65 1005.2
20230206090057 28 266 0.0 0.0 0.00 0.00 0.00 66 1005.4
20230206084551 28 266 0.0 0.0 0.00 0.00 0.00 65 1005.4
20230206083053 28 265 0.0 0.0 0.00 0.00 0.00 65 1005.6
20230206081548 28 265 0.0 0.0 0.00 0.00 0.00 65 1005.5
20230206080054 28 265 0.0 0.0 0.00 0.00 0.00 66 1005.8
20230206074545 28 289 0.0 0.0 0.00 0.00 0.00 66 1005.9
20230206073045 28 319 0.0 0.0 0.00 0.00 0.00 65 1005.9
20230206071540 29 291 0.0 0.0 0.00 0.00 0.00 66 1006.3
20230206070049 28 291 0.0 0.0 0.00 0.00 0.00 67 1006.4
20230206064538 28 338 0.0 2.0 0.00 0.00 0.00 69 1006.6
20230206063036 28 120 0.0 0.0 0.00 0.00 0.00 70 1006.5
20230206061536 28 225 0.0 0.0 0.00 0.00 0.00 70 1006.6
20230206060037 28 225 0.0 0.0 0.00 0.00 0.00 71 1006.9
20230206054533 28 175 0.0 0.0 0.00 0.00 0.00 71 1006.9
20230206053032 29 287 0.0 0.0 0.00 0.00 0.00 72 1007.1
20230206051532 29 227 0.0 0.0 0.00 0.00 0.00 73 1007.3
20230206050033 29 338 0.0 0.0 0.00 0.00 0.00 73 1007.3
20230206044608 29 259 1.0 4.0 0.00 0.00 0.00 73 1007.4
20230206043029 29 277 0.0 0.0 0.00 0.00 0.00 71 1007.3
20230206041531 30 277 0.0 0.0 0.00 0.00 0.00 71 1007.4
20230206040038 30 272 0.0 0.0 0.00 0.00 0.00 70 1007.1
20230206034528 30 271 0.0 0.0 0.00 0.00 0.00 70 1007.1
20230206033031 31 271 0.0 0.0 0.00 0.00 0.00 68 1007.2
20230206031527 31 271 0.0 0.0 0.00 0.00 0.00 68 1007.4
20230206030026 32 271 0.0 0.0 0.00 0.00 0.00 68 1007.5
20230206024531 32 263 0.0 0.0 0.00 0.00 0.00 67 1007.5
20230206023025 32 14 0.0 0.0 0.00 0.00 0.00 63 1007.8
20230206021527 34 14 0.0 0.0 0.00 0.00 0.00 61 1007.9
20230206020123 35 14 0.0 0.0 0.00 0.00 0.00 59 1007.9
20230206014525 36 14 0.0 0.0 0.00 0.00 0.00 56 1008.0
20230206013036 38 15 0.0 0.0 0.00 0.00 0.00 54 1007.9
20230206011522 39 15 0.0 0.0 0.00 0.00 0.00 52 1007.8
20230206010027 41 15 0.0 0.0 0.00 0.00 0.00 48 1007.5
20230206004531 43 15 0.0 0.0 0.00 0.00 0.00 45 1007.2
20230206003024 44 15 0.0 0.0 0.00 0.00 0.00 43 1007.4
20230206001523 46 15 0.0 0.0 0.00 0.00 0.00 42 1006.9
20230206000019 47 14 0.0 0.0 0.00 0.00 0.00 42 1007.1
20230205234524 47 33 0.0 0.0 0.00 0.00 0.00 42 1007.1
20230205233022 47 10 0.0 0.0 0.00 0.00 0.00 42 1007.3
20230205231516 47 10 0.0 4.0 0.00 0.00 0.00 42 1007.6
20230205230017 47 55 0.0 2.0 0.00 0.00 0.00 43 1007.6
20230205224514 47 31 0.0 3.0 0.00 0.00 0.00 42 1008.0
20230205223013 47 11 0.0 5.0 0.00 0.00 0.00 43 1008.0
20230205221512 47 65 0.0 4.0 0.00 0.00 0.00 42 1008.1
20230205220016 49 37 0.0 7.0 0.00 0.00 0.00 40 1008.5
20230205214509 51 347 0.0 5.0 0.00 0.00 0.00 37 1008.9
20230205213009 51 51 0.0 4.0 0.00 0.00 0.00 34 1009.0
20230205211505 50 74 0.0 0.0 0.00 0.00 0.00 35 1009.0
20230205210004 50 78 0.0 0.0 0.00 0.00 0.00 35 1009.3
20230205204602 49 86 0.0 2.0 0.00 0.00 0.00 36 1009.4
20230205203104 49 110 0.0 0.0 0.00 0.00 0.00 35 1010.2
20230205201553 48 107 0.0 0.0 0.00 0.00 0.00 37 1010.5